Time;durP1;ratioP1;P1;durP2;ratioP2;P2;SDS_P1;SDS_P2;PMS_P1;PMS_P2;Temp;Humidity;BMP_temperature;BMP_pressure;BME280_temperature;BME280_humidity;BME280_pressure;Samples;Min_cycle;Max_cycle;Signal;HPM_P1;HPM_P2
2022/05/17 00:02:02;;;;;;;;;;;14.10;99.90;;;;;;5095819;28;19924;-74
2022/05/17 00:04:28;;;;;;;;;;;14.20;99.90;;;;;;5113047;28;19916;-74
2022/05/17 00:06:53;;;;;;;;;;;14.10;99.90;;;;;;5116526;28;19914;-74
2022/05/17 00:09:19;;;;;;;;;;;14.10;99.90;;;;;;5114896;28;19908;-74
2022/05/17 00:11:45;;;;;;;;;;;14.10;99.90;;;;;;5114522;28;19994;-74
2022/05/17 00:14:11;;;;;;;;;;;14.10;99.90;;;;;;5114219;28;19994;-73
2022/05/17 00:16:37;;;;;;;;;;;14.00;99.90;;;;;;5112727;28;19920;-74
2022/05/17 00:19:03;;;;;;;;;;;14.00;99.90;;;;;;5116013;28;19908;-74
2022/05/17 00:21:28;;;;;;;;;;;14.00;99.90;;;;;;5132134;27;19956;-74
2022/05/17 00:23:54;;;;;;;;;;;14.00;99.90;;;;;;5115236;28;20300;-74
2022/05/17 00:26:20;;;;;;;;;;;14.00;99.90;;;;;;5115395;28;19911;-74
2022/05/17 00:28:46;;;;;;;;;;;14.00;99.90;;;;;;5114696;28;19912;-74
2022/05/17 00:31:11;;;;;;;;;;;14.00;99.90;;;;;;5116327;28;20002;-74
2022/05/17 00:33:37;;;;;;;;;;;13.90;99.90;;;;;;5109797;28;20006;-74
2022/05/17 00:36:03;;;;;;;;;;;13.90;99.90;;;;;;5112041;28;20003;-74
2022/05/17 00:38:28;;;;;;;;;;;14.00;99.90;;;;;;5114719;28;19919;-74
2022/05/17 00:40:54;;;;;;;;;;;13.90;99.90;;;;;;5114828;28;20010;-74
2022/05/17 00:44:42;;;;;;;;;;;14.00;99.90;;;;;;5112388;28;19912;-74
2022/05/17 00:46:18;;;;;;;;;;;14.00;99.90;;;;;;5107079;28;20002;-74
2022/05/17 00:48:44;;;;;;;;;;;14.10;99.90;;;;;;5114631;28;19912;-74
2022/05/17 00:51:10;;;;;;;;;;;14.10;99.90;;;;;;5114241;28;20280;-74
2022/05/17 00:53:36;;;;;;;;;;;14.10;99.90;;;;;;5113764;28;19915;-74
2022/05/17 00:56:07;;;;;;;;;;;14.10;99.90;;;;;;5115703;28;19926;-74
2022/05/17 00:58:45;;;;;;;;;;;14.10;99.90;;;;;;5102956;28;19912;-74
2022/05/17 01:01:13;;;;;;;;;;;14.10;99.90;;;;;;5128164;27;20386;-74
2022/05/17 01:03:51;;;;;;;;;;;14.10;99.90;;;;;;5109284;28;20203;-74
2022/05/17 01:06:17;;;;;;;;;;;14.10;99.90;;;;;;5115623;28;19912;-74
2022/05/17 01:08:43;;;;;;;;;;;14.00;99.90;;;;;;5113618;28;19915;-74
2022/05/17 01:11:08;;;;;;;;;;;14.00;99.90;;;;;;5115607;28;20037;-74
2022/05/17 01:16:18;;;;;;;;;;;13.90;99.90;;;;;;5112038;28;19922;-74
2022/05/17 01:18:44;;;;;;;;;;;13.80;99.90;;;;;;5107249;28;19912;-74
2022/05/17 01:21:10;;;;;;;;;;;13.80;99.90;;;;;;5115634;28;19998;-74
2022/05/17 01:23:35;;;;;;;;;;;13.70;99.90;;;;;;5113387;28;20217;-74
2022/05/17 01:26:03;;;;;;;;;;;13.70;99.90;;;;;;5114337;28;19912;-74
2022/05/17 01:28:35;;;;;;;;;;;13.60;99.90;;;;;;5115194;28;19916;-74
2022/05/17 01:31:07;;;;;;;;;;;13.50;99.90;;;;;;5112673;27;20265;-74
2022/05/17 01:33:33;;;;;;;;;;;13.40;99.90;;;;;;5113778;28;20137;-75
2022/05/17 01:36:00;;;;;;;;;;;13.40;99.90;;;;;;5115666;27;19915;-74
2022/05/17 01:38:26;;;;;;;;;;;13.40;99.90;;;;;;5117895;27;20006;-74
2022/05/17 01:40:52;;;;;;;;;;;13.40;99.90;;;;;;5116943;27;20280;-74
2022/05/17 01:43:18;;;;;;;;;;;13.40;99.90;;;;;;5105636;28;20000;-74
2022/05/17 01:45:43;;;;;;;;;;;13.30;99.90;;;;;;5146497;27;19911;-74
2022/05/17 01:48:09;;;;;;;;;;;13.30;99.90;;;;;;5097387;28;19912;-75
2022/05/17 01:50:34;;;;;;;;;;;13.30;99.90;;;;;;5117399;27;19961;-75
2022/05/17 01:53:00;;;;;;;;;;;13.10;99.90;;;;;;5118841;28;19912;-74
2022/05/17 01:55:26;;;;;;;;;;;13.10;99.90;;;;;;5148629;27;19928;-74
2022/05/17 01:57:51;;;;;;;;;;;12.90;99.90;;;;;;5118655;28;19954;-74
2022/05/17 02:00:18;;;;;;;;;;;12.90;99.90;;;;;;5118686;28;19998;-75
2022/05/17 02:02:43;;;;;;;;;;;12.90;99.90;;;;;;5117637;27;19961;-74
2022/05/17 02:05:09;;;;;;;;;;;12.80;99.90;;;;;;5116542;27;19908;-74
2022/05/17 02:07:35;;;;;;;;;;;12.80;99.90;;;;;;5114278;28;19911;-74
2022/05/17 02:10:00;;;;;;;;;;;12.80;99.90;;;;;;5118417;28;19908;-74
2022/05/17 02:12:26;;;;;;;;;;;12.80;99.90;;;;;;5117412;28;19915;-74
2022/05/17 02:14:51;;;;;;;;;;;12.80;99.90;;;;;;5117488;28;20364;-74
2022/05/17 02:17:17;;;;;;;;;;;12.70;99.90;;;;;;5116294;28;20044;-74
2022/05/17 02:19:43;;;;;;;;;;;12.70;99.90;;;;;;5115748;27;20313;-73
2022/05/17 02:22:10;;;;;;;;;;;12.80;99.90;;;;;;5115821;28;19912;-73
2022/05/17 02:24:35;;;;;;;;;;;12.90;99.90;;;;;;5117709;27;19912;-73
2022/05/17 02:27:01;;;;;;;;;;;12.90;99.90;;;;;;5117184;28;19912;-73
2022/05/17 02:29:29;;;;;;;;;;;12.90;99.90;;;;;;5118047;28;20261;-73
2022/05/17 02:31:54;;;;;;;;;;;12.80;99.90;;;;;;5117009;27;19912;-74
2022/05/17 02:34:20;;;;;;;;;;;12.70;99.90;;;;;;5108243;27;19986;-74
2022/05/17 02:36:45;;;;;;;;;;;12.70;99.90;;;;;;5118030;28;19914;-78
2022/05/17 02:39:12;;;;;;;;;;;12.70;99.90;;;;;;5117440;28;19919;-74
2022/05/17 02:41:37;;;;;;;;;;;12.70;99.90;;;;;;5116442;28;20031;-74
2022/05/17 02:44:03;;;;;;;;;;;12.70;99.90;;;;;;5103438;28;20322;-74
2022/05/17 02:46:30;;;;;;;;;;;12.60;99.90;;;;;;5097292;28;19908;-75
2022/05/17 02:48:55;;;;;;;;;;;12.50;99.90;;;;;;5109448;28;19916;-74
2022/05/17 02:51:21;;;;;;;;;;;12.50;99.90;;;;;;5117900;27;19911;-74
2022/05/17 02:53:47;;;;;;;;;;;12.50;99.90;;;;;;5143453;27;19966;-74
2022/05/17 02:56:12;;;;;;;;;;;12.60;99.90;;;;;;5096249;28;19908;-74
2022/05/17 02:58:39;;;;;;;;;;;12.60;99.90;;;;;;5102466;28;19919;-74
2022/05/17 03:01:06;;;;;;;;;;;12.70;99.90;;;;;;5117566;28;20264;-74
2022/05/17 03:03:32;;;;;;;;;;;12.70;99.90;;;;;;5116281;28;20281;-74
2022/05/17 03:05:57;;;;;;;;;;;12.60;99.90;;;;;;5116335;28;20356;-74
2022/05/17 03:08:23;;;;;;;;;;;12.60;99.90;;;;;;5115269;28;19908;-75
2022/05/17 03:10:49;;;;;;;;;;;12.60;99.90;;;;;;5117285;28;19919;-75
2022/05/17 03:13:15;;;;;;;;;;;12.60;99.90;;;;;;5117187;28;19908;-74
2022/05/17 03:15:41;;;;;;;;;;;12.50;99.90;;;;;;5133349;27;19924;-74
2022/05/17 03:18:06;;;;;;;;;;;12.50;99.90;;;;;;5101828;28;20037;-74
2022/05/17 03:20:32;;;;;;;;;;;12.60;99.90;;;;;;5098642;28;20010;-74
2022/05/17 03:22:57;;;;;;;;;;;12.70;99.90;;;;;;5096959;27;19916;-73
2022/05/17 03:25:23;;;;;;;;;;;12.70;99.90;;;;;;5114019;27;19923;-73
2022/05/17 03:27:49;;;;;;;;;;;12.80;99.90;;;;;;5098906;28;19916;-74
2022/05/17 03:30:14;;;;;;;;;;;12.80;99.90;;;;;;5116866;28;19911;-74
2022/05/17 03:32:40;;;;;;;;;;;12.80;99.90;;;;;;5116938;28;19964;-75
2022/05/17 03:35:06;;;;;;;;;;;12.80;99.90;;;;;;5115100;28;19916;-75
2022/05/17 03:37:32;;;;;;;;;;;12.80;99.90;;;;;;5115428;28;19916;-73
2022/05/17 03:39:57;;;;;;;;;;;12.90;99.90;;;;;;5116690;28;19922;-74
2022/05/17 03:42:23;;;;;;;;;;;12.90;99.90;;;;;;5150177;27;19947;-74
2022/05/17 03:44:48;;;;;;;;;;;12.90;99.90;;;;;;5115969;27;19916;-74
2022/05/17 03:47:14;;;;;;;;;;;12.90;99.90;;;;;;5116482;28;20271;-74
2022/05/17 03:49:40;;;;;;;;;;;12.90;99.90;;;;;;5110087;27;19912;-76
2022/05/17 03:52:06;;;;;;;;;;;12.90;99.90;;;;;;5095556;28;19915;-74
2022/05/17 03:54:31;;;;;;;;;;;12.90;99.90;;;;;;5105571;28;19939;-75
2022/05/17 03:56:57;;;;;;;;;;;12.90;99.90;;;;;;5109767;28;19920;-75
2022/05/17 03:59:22;;;;;;;;;;;13.00;99.90;;;;;;5094887;28;19912;-74
2022/05/17 04:01:48;;;;;;;;;;;13.00;99.90;;;;;;5113279;28;20803;-74
2022/05/17 04:04:14;;;;;;;;;;;13.00;99.90;;;;;;5113011;28;20373;-74
2022/05/17 04:06:39;;;;;;;;;;;13.10;99.90;;;;;;5111481;28;19912;-74
2022/05/17 04:09:05;;;;;;;;;;;13.20;99.90;;;;;;5115331;28;19911;-74
2022/05/17 04:11:32;;;;;;;;;;;13.30;99.90;;;;;;5116269;28;19965;-75
2022/05/17 04:13:57;;;;;;;;;;;13.30;99.90;;;;;;5115351;27;19923;-74
2022/05/17 04:16:23;;;;;;;;;;;13.40;99.90;;;;;;5115110;28;19908;-74
2022/05/17 04:18:48;;;;;;;;;;;13.50;99.90;;;;;;5107096;28;19913;-74
2022/05/17 04:21:14;;;;;;;;;;;13.50;99.90;;;;;;5106316;28;19933;-74
2022/05/17 04:23:41;;;;;;;;;;;13.50;99.90;;;;;;5110238;28;19964;-74
2022/05/17 04:26:07;;;;;;;;;;;13.60;99.90;;;;;;5111721;28;19916;-74
2022/05/17 04:28:32;;;;;;;;;;;13.60;99.90;;;;;;5106442;28;19918;-75
2022/05/17 04:30:58;;;;;;;;;;;13.60;99.90;;;;;;5101745;28;19916;-75
2022/05/17 04:33:24;;;;;;;;;;;13.60;99.90;;;;;;5113956;28;20290;-73
2022/05/17 04:35:50;;;;;;;;;;;13.60;99.90;;;;;;5112379;28;20358;-75
2022/05/17 04:38:15;;;;;;;;;;;13.70;99.90;;;;;;5109627;28;19962;-74
2022/05/17 04:40:41;;;;;;;;;;;13.80;99.90;;;;;;5110356;28;19920;-75
2022/05/17 04:43:08;;;;;;;;;;;13.80;99.90;;;;;;5111820;28;20016;-75
2022/05/17 04:45:33;;;;;;;;;;;13.80;99.90;;;;;;5108715;28;20307;-75
2022/05/17 04:47:59;;;;;;;;;;;13.80;99.90;;;;;;5114635;28;19914;-74
2022/05/17 04:50:25;;;;;;;;;;;13.90;99.90;;;;;;5108917;28;19915;-75
2022/05/17 04:52:50;;;;;;;;;;;14.00;99.90;;;;;;5145272;27;20483;-76
2022/05/17 04:55:17;;;;;;;;;;;14.00;99.90;;;;;;5106145;28;20003;-75
2022/05/17 04:57:43;;;;;;;;;;;14.10;99.90;;;;;;5111993;28;20349;-76
2022/05/17 05:00:10;;;;;;;;;;;14.10;99.90;;;;;;5111594;28;19966;-75
2022/05/17 05:02:36;;;;;;;;;;;14.20;99.90;;;;;;5114052;28;19912;-76
2022/05/17 05:05:02;;;;;;;;;;;14.20;99.90;;;;;;5113870;28;19955;-75
2022/05/17 05:07:28;;;;;;;;;;;14.30;99.90;;;;;;5115581;27;19943;-75
2022/05/17 05:09:54;;;;;;;;;;;14.40;99.90;;;;;;5148797;27;19965;-76
2022/05/17 05:12:19;;;;;;;;;;;14.50;99.90;;;;;;5115850;28;19908;-76
2022/05/17 05:14:45;;;;;;;;;;;14.50;99.90;;;;;;5113614;27;20010;-75
2022/05/17 05:17:10;;;;;;;;;;;14.60;99.90;;;;;;5114825;28;19989;-75
2022/05/17 05:19:36;;;;;;;;;;;14.60;99.90;;;;;;5108685;28;19948;-75
2022/05/17 05:22:02;;;;;;;;;;;14.70;99.90;;;;;;5116633;28;20010;-76
2022/05/17 05:24:27;;;;;;;;;;;14.80;99.90;;;;;;5117948;28;20218;-75
2022/05/17 05:26:53;;;;;;;;;;;14.90;99.90;;;;;;5118366;27;19978;-75
2022/05/17 05:29:18;;;;;;;;;;;14.90;99.90;;;;;;5104680;28;19919;-75
2022/05/17 05:31:44;;;;;;;;;;;14.90;99.90;;;;;;5117877;28;19915;-76
2022/05/17 05:34:10;;;;;;;;;;;15.00;99.90;;;;;;5114830;28;19915;-75
2022/05/17 05:36:36;;;;;;;;;;;15.00;99.90;;;;;;5117564;28;19998;-75
2022/05/17 05:39:02;;;;;;;;;;;15.00;99.90;;;;;;5109279;28;19963;-75
2022/05/17 05:41:28;;;;;;;;;;;15.00;99.90;;;;;;5104118;28;19912;-75
2022/05/17 05:43:53;;;;;;;;;;;15.10;99.90;;;;;;5110634;28;19918;-76
2022/05/17 05:46:19;;;;;;;;;;;15.10;99.90;;;;;;5111801;28;19915;-75
2022/05/17 05:48:44;;;;;;;;;;;15.20;99.90;;;;;;5109386;28;20237;-76
2022/05/17 05:51:11;;;;;;;;;;;15.20;99.90;;;;;;5115341;27;20004;-74
2022/05/17 05:53:37;;;;;;;;;;;15.30;99.90;;;;;;5115558;27;19916;-76
2022/05/17 05:56:03;;;;;;;;;;;15.30;99.90;;;;;;5114944;28;20046;-75
2022/05/17 05:58:29;;;;;;;;;;;15.30;99.90;;;;;;5092039;28;19916;-75
2022/05/17 06:00:55;;;;;;;;;;;15.30;99.90;;;;;;5109686;27;19964;-74
2022/05/17 06:03:20;;;;;;;;;;;15.40;99.90;;;;;;5116701;27;19912;-75
2022/05/17 06:05:46;;;;;;;;;;;15.40;99.90;;;;;;5108550;28;19944;-75
2022/05/17 06:08:13;;;;;;;;;;;15.50;99.90;;;;;;5112935;27;19935;-75
2022/05/17 06:10:39;;;;;;;;;;;15.40;99.90;;;;;;5110154;27;20259;-75
2022/05/17 06:13:04;;;;;;;;;;;15.50;99.90;;;;;;5114842;28;19920;-76
2022/05/17 06:15:30;;;;;;;;;;;15.50;99.90;;;;;;5091890;28;20307;-75
2022/05/17 06:18:00;;;;;;;;;;;15.60;99.90;;;;;;5107014;27;19964;-74
2022/05/17 06:20:25;;;;;;;;;;;15.70;99.90;;;;;;5110034;28;20215;-74
2022/05/17 06:22:51;;;;;;;;;;;15.70;99.90;;;;;;5116785;28;19916;-75
2022/05/17 06:25:16;;;;;;;;;;;15.80;99.90;;;;;;5106047;27;19916;-76
2022/05/17 06:27:42;;;;;;;;;;;15.90;99.90;;;;;;5088819;28;19920;-75
2022/05/17 06:30:08;;;;;;;;;;;15.90;99.90;;;;;;5115396;27;19915;-74
2022/05/17 06:32:34;;;;;;;;;;;16.00;99.90;;;;;;5110160;28;19915;-75
2022/05/17 06:34:59;;;;;;;;;;;16.00;99.90;;;;;;5106196;28;19926;-75
2022/05/17 06:37:25;;;;;;;;;;;16.10;99.90;;;;;;5115494;28;20302;-74
2022/05/17 06:39:50;;;;;;;;;;;16.10;99.90;;;;;;5115415;27;19916;-75
2022/05/17 06:42:16;;;;;;;;;;;16.10;99.90;;;;;;5116484;28;19920;-75
2022/05/17 06:44:41;;;;;;;;;;;16.10;99.90;;;;;;5115511;28;19951;-74
2022/05/17 06:47:07;;;;;;;;;;;16.10;99.90;;;;;;5115501;28;19966;-74
2022/05/17 06:49:35;;;;;;;;;;;16.00;99.90;;;;;;5114294;27;19999;-74
2022/05/17 06:52:01;;;;;;;;;;;16.00;99.90;;;;;;5113580;27;19959;-75
2022/05/17 06:54:27;;;;;;;;;;;16.00;99.90;;;;;;5115703;28;19951;-75
2022/05/17 06:56:52;;;;;;;;;;;16.00;99.90;;;;;;5116717;28;19911;-75
2022/05/17 06:59:18;;;;;;;;;;;16.10;99.90;;;;;;5116676;28;20245;-75
2022/05/17 07:01:44;;;;;;;;;;;16.10;99.90;;;;;;5116672;27;19911;-77
2022/05/17 07:04:10;;;;;;;;;;;16.20;99.90;;;;;;5110970;27;19935;-75
2022/05/17 07:06:35;;;;;;;;;;;16.30;99.90;;;;;;5143166;27;19911;-75
2022/05/17 07:09:01;;;;;;;;;;;16.40;99.90;;;;;;5116417;28;19919;-75
2022/05/17 07:14:11;;;;;;;;;;;16.60;99.90;;;;;;5111956;27;20427;-75
2022/05/17 07:16:36;;;;;;;;;;;16.80;99.90;;;;;;5112253;28;19955;-75
2022/05/17 07:19:02;;;;;;;;;;;16.90;99.90;;;;;;5109002;28;19912;-75
2022/05/17 07:21:27;;;;;;;;;;;17.00;99.90;;;;;;5114926;28;19915;-75
2022/05/17 07:23:53;;;;;;;;;;;17.00;99.90;;;;;;5100531;28;19911;-75
2022/05/17 07:26:18;;;;;;;;;;;16.90;99.90;;;;;;5104452;28;19914;-75
2022/05/17 07:28:45;;;;;;;;;;;16.70;99.90;;;;;;5114945;28;19914;-75
2022/05/17 07:31:11;;;;;;;;;;;16.70;99.90;;;;;;5114846;28;20329;-76
2022/05/17 07:33:37;;;;;;;;;;;16.70;99.90;;;;;;5105429;28;19916;-75
2022/05/17 07:36:03;;;;;;;;;;;16.80;99.90;;;;;;5115288;28;19915;-74
2022/05/17 07:38:28;;;;;;;;;;;16.70;99.90;;;;;;5114176;28;19923;-75
2022/05/17 07:40:54;;;;;;;;;;;16.70;99.90;;;;;;5112938;27;19920;-75
2022/05/17 07:43:20;;;;;;;;;;;16.80;99.90;;;;;;5109081;28;19922;-74
2022/05/17 07:45:51;;;;;;;;;;;16.80;99.90;;;;;;5114594;28;19926;-74
2022/05/17 07:48:20;;;;;;;;;;;17.00;99.90;;;;;;5114519;28;19919;-75
2022/05/17 07:50:46;;;;;;;;;;;17.00;99.90;;;;;;5113615;28;20343;-74
2022/05/17 07:53:13;;;;;;;;;;;17.20;99.90;;;;;;5109180;28;19915;-74
2022/05/17 07:55:40;;;;;;;;;;;17.30;99.90;;;;;;5114028;28;19951;-74
2022/05/17 07:58:06;;;;;;;;;;;17.40;99.90;;;;;;5113998;28;19920;-74
2022/05/17 08:00:32;;;;;;;;;;;17.50;99.90;;;;;;5090245;28;20230;-75
2022/05/17 08:02:58;;;;;;;;;;;17.60;99.90;;;;;;5108191;28;19924;-74
2022/05/17 08:05:25;;;;;;;;;;;17.50;99.90;;;;;;5112393;28;19911;-75
2022/05/17 08:07:51;;;;;;;;;;;17.50;99.90;;;;;;5107968;28;19946;-74
2022/05/17 08:10:16;;;;;;;;;;;17.60;99.90;;;;;;5107904;28;19919;-74
2022/05/17 08:12:42;;;;;;;;;;;17.50;99.90;;;;;;5113162;27;19936;-74
2022/05/17 08:15:08;;;;;;;;;;;17.40;99.90;;;;;;5113582;28;20010;-74
2022/05/17 08:17:34;;;;;;;;;;;17.50;99.90;;;;;;5110625;27;20291;-74
2022/05/17 08:19:59;;;;;;;;;;;17.40;99.90;;;;;;5108815;27;19941;-74
2022/05/17 08:22:25;;;;;;;;;;;17.20;99.90;;;;;;5110584;28;19994;-74
2022/05/17 08:27:39;;;;;;;;;;;17.10;99.90;;;;;;5114550;28;20210;-74
2022/05/17 08:30:06;;;;;;;;;;;17.10;99.90;;;;;;5143315;27;19912;-74
2022/05/17 08:35:16;;;;;;;;;;;17.00;99.90;;;;;;5114629;28;19934;-74
2022/05/17 08:37:42;;;;;;;;;;;17.00;99.90;;;;;;5112432;28;19994;-74
2022/05/17 08:40:10;;;;;;;;;;;16.90;99.90;;;;;;5115149;28;19923;-74
2022/05/17 08:42:35;;;;;;;;;;;16.80;99.90;;;;;;5104804;28;19966;-75
2022/05/17 08:45:04;;;;;;;;;;;16.70;99.90;;;;;;5108223;28;19959;-74
2022/05/17 08:47:37;;;;;;;;;;;16.60;99.90;;;;;;5111704;28;20203;-74
2022/05/17 08:50:05;;;;;;;;;;;16.50;99.90;;;;;;5109227;28;19920;-74
2022/05/17 08:52:32;;;;;;;;;;;16.60;99.90;;;;;;5108756;28;20214;-74
2022/05/17 08:55:03;;;;;;;;;;;16.60;99.90;;;;;;5111794;28;20201;-74
2022/05/17 08:57:32;;;;;;;;;;;16.60;99.90;;;;;;5112706;28;20269;-74
2022/05/17 09:00:06;;;;;;;;;;;16.50;99.90;;;;;;5112711;28;19947;-74
2022/05/17 09:02:34;;;;;;;;;;;16.60;99.90;;;;;;5111355;28;19919;-74
2022/05/17 09:05:25;;;;;;;;;;;16.70;99.90;;;;;;5114098;28;19912;-74
2022/05/17 09:08:03;;;;;;;;;;;16.80;99.90;;;;;;5086068;28;19915;-74
2022/05/17 09:10:31;;;;;;;;;;;17.00;99.90;;;;;;5111543;28;20303;-75
2022/05/17 09:13:01;;;;;;;;;;;17.10;99.90;;;;;;5109665;28;20011;-75
2022/05/17 09:15:45;;;;;;;;;;;17.30;99.90;;;;;;5112549;28;19922;-74
2022/05/17 09:18:13;;;;;;;;;;;17.40;99.90;;;;;;5111511;28;20312;-74
2022/05/17 09:20:39;;;;;;;;;;;17.60;99.90;;;;;;5114240;28;19995;-74
2022/05/17 09:23:06;;;;;;;;;;;17.70;99.90;;;;;;5113188;28;20007;-75
2022/05/17 09:25:50;;;;;;;;;;;17.90;99.90;;;;;;5110609;28;20385;-75
2022/05/17 09:28:23;;;;;;;;;;;18.00;99.90;;;;;;5112983;28;19912;-74
2022/05/17 09:31:05;;;;;;;;;;;18.10;99.90;;;;;;5106758;28;19935;-74
2022/05/17 09:33:31;;;;;;;;;;;18.20;99.90;;;;;;5110825;28;20006;-76
2022/05/17 09:35:58;;;;;;;;;;;18.30;99.90;;;;;;5104412;28;20057;-74
2022/05/17 09:38:24;;;;;;;;;;;18.50;99.90;;;;;;5109321;28;20230;-74
2022/05/17 09:40:51;;;;;;;;;;;18.80;99.90;;;;;;5110930;28;20330;-76
2022/05/17 09:43:23;;;;;;;;;;;19.00;99.90;;;;;;5111725;28;20010;-74
2022/05/17 09:45:49;;;;;;;;;;;19.20;99.90;;;;;;5111719;28;19922;-75
2022/05/17 09:54:05;;;;;;;;;;;19.90;99.90;;;;;;5115782;28;19922;-74
2022/05/17 09:56:31;;;;;;;;;;;20.40;99.90;;;;;;5151169;27;19912;-74
2022/05/17 09:58:57;;;;;;;;;;;20.90;99.90;;;;;;5114241;28;19927;-74
2022/05/17 10:01:28;;;;;;;;;;;21.00;99.90;;;;;;5113474;28;19912;-74
2022/05/17 10:04:02;;;;;;;;;;;21.10;99.90;;;;;;5112274;28;20021;-74
2022/05/17 10:06:35;;;;;;;;;;;21.10;99.90;;;;;;5118020;27;19915;-73
2022/05/17 10:09:05;;;;;;;;;;;21.10;99.90;;;;;;5118649;27;20303;-74
2022/05/17 10:11:42;;;;;;;;;;;21.40;99.90;;;;;;5118811;28;19992;-74
2022/05/17 10:14:16;;;;;;;;;;;22.00;99.90;;;;;;5110488;27;19923;-73
2022/05/17 10:17:11;;;;;;;;;;;22.50;99.90;;;;;;5116393;28;20357;-74
2022/05/17 10:19:51;;;;;;;;;;;23.00;99.90;;;;;;5046381;28;19952;-74
2022/05/17 10:22:17;;;;;;;;;;;23.50;99.90;;;;;;5118745;28;19915;-74
2022/05/17 10:24:46;;;;;;;;;;;23.30;99.90;;;;;;5117556;28;20191;-74
2022/05/17 10:27:15;;;;;;;;;;;23.50;99.90;;;;;;5118337;28;19995;-73
2022/05/17 10:29:46;;;;;;;;;;;23.30;99.90;;;;;;5118455;28;20252;-74
2022/05/17 10:32:24;;;;;;;;;;;23.40;99.90;;;;;;5115126;28;19916;-74
2022/05/17 10:34:52;;;;;;;;;;;23.60;99.90;;;;;;5117391;28;19920;-74
2022/05/17 10:37:19;;;;;;;;;;;23.70;99.90;;;;;;5107708;27;19916;-75
2022/05/17 10:39:54;;;;;;;;;;;24.10;99.90;;;;;;5115313;28;19915;-75
2022/05/17 10:42:21;;;;;;;;;;;24.50;99.90;;;;;;5109651;28;19912;-75
2022/05/17 10:44:53;;;;;;;;;;;24.50;99.90;;;;;;5113536;28;20002;-75
2022/05/17 10:47:28;;;;;;;;;;;24.70;99.90;;;;;;5116911;28;19907;-76
2022/05/17 10:50:01;;;;;;;;;;;24.80;99.90;;;;;;5116933;27;20359;-76
2022/05/17 10:52:43;;;;;;;;;;;25.20;99.90;;;;;;5115152;28;19912;-76
2022/05/17 10:55:14;;;;;;;;;;;25.50;99.90;;;;;;5117793;28;19920;-76
2022/05/17 10:58:02;;;;;;;;;;;25.40;99.90;;;;;;5117406;28;19908;-74
2022/05/17 11:00:39;;;;;;;;;;;24.60;99.90;;;;;;5105517;28;20617;-74
2022/05/17 11:03:10;;;;;;;;;;;24.00;99.90;;;;;;5112370;28;19989;-74
2022/05/17 11:05:54;;;;;;;;;;;24.00;99.90;;;;;;5108837;28;19959;-74
2022/05/17 11:08:28;;;;;;;;;;;24.40;99.90;;;;;;5107175;28;19998;-76
2022/05/17 11:10:54;;;;;;;;;;;24.60;99.90;;;;;;5110458;28;20369;-76
2022/05/17 11:13:22;;;;;;;;;;;24.50;99.90;;;;;;5110225;28;19908;-75
2022/05/17 11:15:51;;;;;;;;;;;24.30;99.90;;;;;;5112148;28;19924;-75
2022/05/17 11:18:32;;;;;;;;;;;24.10;99.90;;;;;;5111261;28;19911;-74
2022/05/17 11:21:07;;;;;;;;;;;24.00;99.90;;;;;;5108813;28;19938;-74
2022/05/17 11:23:32;;;;;;;;;;;23.80;99.90;;;;;;5099275;28;19920;-75
2022/05/17 11:26:07;;;;;;;;;;;24.00;99.90;;;;;;5099611;28;19934;-74
2022/05/17 11:28:33;;;;;;;;;;;23.90;99.90;;;;;;5100472;28;19923;-74
2022/05/17 11:31:01;;;;;;;;;;;24.20;99.90;;;;;;5110066;27;19919;-75
2022/05/17 11:33:29;;;;;;;;;;;24.50;99.90;;;;;;5110580;28;20312;-74
2022/05/17 11:35:55;;;;;;;;;;;25.00;99.90;;;;;;5111748;28;20235;-74
2022/05/17 11:38:20;;;;;;;;;;;25.10;99.90;;;;;;5103592;28;19927;-74
2022/05/17 11:40:46;;;;;;;;;;;25.30;99.90;;;;;;5111138;28;20342;-74
2022/05/17 11:45:57;;;;;;;;;;;25.60;99.90;;;;;;5112435;28;19943;-73
2022/05/17 11:48:51;;;;;;;;;;;26.00;99.90;;;;;;5110682;28;19966;-75
2022/05/17 11:51:17;;;;;;;;;;;26.20;99.90;;;;;;5056781;28;19932;-75
2022/05/17 11:53:44;;;;;;;;;;;26.40;99.80;;;;;;5077038;28;20307;-75
2022/05/17 11:56:10;;;;;;;;;;;26.40;99.90;;;;;;5094845;28;20018;-74
2022/05/17 11:58:35;;;;;;;;;;;26.10;98.80;;;;;;5112428;28;20053;-72
2022/05/17 12:01:01;;;;;;;;;;;26.00;99.50;;;;;;5109058;28;19911;-75
2022/05/17 12:03:47;;;;;;;;;;;25.70;99.90;;;;;;5092807;28;19912;-74
2022/05/17 12:06:27;;;;;;;;;;;25.30;99.90;;;;;;5091770;28;19965;-76
2022/05/17 12:08:52;;;;;;;;;;;25.30;99.90;;;;;;5092550;28;19908;-75
2022/05/17 12:11:18;;;;;;;;;;;25.20;99.90;;;;;;5092651;28;19919;-75
2022/05/17 12:13:55;;;;;;;;;;;25.00;99.90;;;;;;5112099;28;19918;-77
2022/05/17 12:16:25;;;;;;;;;;;24.80;99.90;;;;;;5111636;28;20404;-74
2022/05/17 12:18:53;;;;;;;;;;;24.80;99.90;;;;;;5107849;28;20002;-73
2022/05/17 12:21:22;;;;;;;;;;;24.60;99.90;;;;;;5092110;28;19924;-74
2022/05/17 12:23:51;;;;;;;;;;;24.40;99.90;;;;;;5092329;28;19912;-76
2022/05/17 12:26:36;;;;;;;;;;;24.50;99.90;;;;;;5094274;28;19951;-77
2022/05/17 12:30:53;;;;;;;;;;;24.50;99.90;;;;;;5112324;28;19912;-74
2022/05/17 12:31:56;;;;;;;;;;;24.40;99.90;;;;;;5112256;28;19958;-74
2022/05/17 12:34:23;;;;;;;;;;;24.30;99.90;;;;;;5109356;28;19912;-75
2022/05/17 12:36:49;;;;;;;;;;;24.30;99.90;;;;;;5109351;28;19948;-74
2022/05/17 12:44:56;;;;;;;;;;;24.00;99.90;;;;;;5102052;28;19934;-75
2022/05/17 12:47:23;;;;;;;;;;;24.10;99.90;;;;;;5101197;28;19945;-75
2022/05/17 12:49:53;;;;;;;;;;;24.10;99.90;;;;;;5108700;28;19919;-75
2022/05/17 12:52:30;;;;;;;;;;;24.10;99.90;;;;;;5116297;27;20046;-74
2022/05/17 12:54:59;;;;;;;;;;;23.90;99.90;;;;;;5107023;28;19931;-76
2022/05/17 12:57:31;;;;;;;;;;;23.70;99.90;;;;;;5101742;28;19916;-74
2022/05/17 13:00:15;;;;;;;;;;;23.70;99.90;;;;;;5107522;28;20010;-76
2022/05/17 13:02:45;;;;;;;;;;;23.60;99.90;;;;;;5108529;28;19964;-76
2022/05/17 13:05:23;;;;;;;;;;;23.80;99.90;;;;;;5110502;28;20002;-76
2022/05/17 13:07:57;;;;;;;;;;;23.90;99.90;;;;;;5109339;28;20306;-75
2022/05/17 13:10:23;;;;;;;;;;;24.30;99.90;;;;;;5106422;28;19961;-75
2022/05/17 13:12:48;;;;;;;;;;;24.50;99.90;;;;;;5105215;28;19920;-75
2022/05/17 13:15:14;;;;;;;;;;;24.80;99.90;;;;;;5093936;28;19920;-76
2022/05/17 13:17:41;;;;;;;;;;;25.00;99.90;;;;;;5090726;28;19981;-77
2022/05/17 13:20:11;;;;;;;;;;;25.10;99.90;;;;;;5091533;28;19935;-74
2022/05/17 13:22:39;;;;;;;;;;;25.00;99.90;;;;;;5099167;28;20376;-75
2022/05/17 13:25:09;;;;;;;;;;;24.70;99.90;;;;;;5094903;28;20688;-77
2022/05/17 13:27:37;;;;;;;;;;;24.40;99.90;;;;;;5115734;28;20092;-75
2022/05/17 13:30:07;;;;;;;;;;;24.40;99.90;;;;;;5110978;28;19912;-76
2022/05/17 13:32:46;;;;;;;;;;;24.40;99.90;;;;;;5102876;28;19916;-77
2022/05/17 13:35:14;;;;;;;;;;;24.60;99.90;;;;;;5113621;28;20335;-77
2022/05/17 13:37:55;;;;;;;;;;;24.80;99.90;;;;;;5113231;28;19920;-76
2022/05/17 13:40:36;;;;;;;;;;;24.70;99.90;;;;;;5104994;28;19927;-77
2022/05/17 13:43:16;;;;;;;;;;;24.80;99.90;;;;;;5110896;28;19931;-77
2022/05/17 13:45:55;;;;;;;;;;;25.30;99.90;;;;;;5106915;28;20400;-78
2022/05/17 13:48:21;;;;;;;;;;;25.20;99.90;;;;;;5112932;28;19920;-78
2022/05/17 13:50:52;;;;;;;;;;;25.50;99.90;;;;;;5111406;28;19922;-76
2022/05/17 13:53:19;;;;;;;;;;;25.60;99.90;;;;;;5112521;28;19968;-76
2022/05/17 13:55:44;;;;;;;;;;;25.70;99.80;;;;;;5105454;28;19928;-77
2022/05/17 13:58:11;;;;;;;;;;;25.40;99.90;;;;;;5113229;28;20382;-76
2022/05/17 14:00:38;;;;;;;;;;;25.20;99.90;;;;;;5111968;28;19915;-77
2022/05/17 14:03:23;;;;;;;;;;;25.50;99.90;;;;;;5104152;28;19915;-76
2022/05/17 14:06:08;;;;;;;;;;;25.80;99.90;;;;;;5112334;28;19951;-76
2022/05/17 14:11:51;;;;;;;;;;;25.40;99.90;;;;;;5112644;28;19926;-77
2022/05/17 14:14:21;;;;;;;;;;;25.00;99.90;;;;;;5112395;28;19920;-76
2022/05/17 14:16:52;;;;;;;;;;;24.90;99.90;;;;;;5112704;28;19999;-78
2022/05/17 14:19:19;;;;;;;;;;;24.80;99.90;;;;;;5105159;28;20340;-77
2022/05/17 14:21:45;;;;;;;;;;;24.80;99.90;;;;;;5110590;28;19922;-77
2022/05/17 14:24:15;;;;;;;;;;;24.80;99.90;;;;;;5111162;28;19923;-77
2022/05/17 14:26:43;;;;;;;;;;;25.10;99.90;;;;;;5110829;27;20401;-77
2022/05/17 14:29:09;;;;;;;;;;;25.50;99.70;;;;;;5109279;28;20073;-77
2022/05/17 14:31:37;;;;;;;;;;;25.30;99.90;;;;;;5101609;28;20358;-76
2022/05/17 14:34:04;;;;;;;;;;;25.40;99.90;;;;;;5104167;28;19919;-77
2022/05/17 14:36:30;;;;;;;;;;;25.20;99.90;;;;;;5105838;28;20021;-77
2022/05/17 14:38:56;;;;;;;;;;;25.30;99.90;;;;;;5136343;27;20219;-76
2022/05/17 14:41:22;;;;;;;;;;;25.60;99.80;;;;;;5126987;27;19923;-77
2022/05/17 14:43:47;;;;;;;;;;;25.90;99.30;;;;;;5108725;27;19919;-76
2022/05/17 14:46:14;;;;;;;;;;;26.30;98.40;;;;;;5108416;28;19919;-76
2022/05/17 14:48:40;;;;;;;;;;;26.30;98.80;;;;;;5110513;28;19938;-76
2022/05/17 14:51:06;;;;;;;;;;;25.90;99.40;;;;;;5094993;28;20303;-77